sensor_id;sensor_type;location;lat;lon;timestamp;P1;durP1;ratioP1;P2;durP2;ratioP2
4895;SDS011;2463;49.948;8.472;2022-10-22T00:01:51;92.43;;;6.35;;
4895;SDS011;2463;49.948;8.472;2022-10-22T00:04:18;92.63;;;5.68;;
4895;SDS011;2463;49.948;8.472;2022-10-22T00:06:45;97.30;;;6.38;;
4895;SDS011;2463;49.948;8.472;2022-10-22T00:09:12;95.15;;;5.80;;
4895;SDS011;2463;49.948;8.472;2022-10-22T00:11:40;93.30;;;6.28;;
4895;SDS011;2463;49.948;8.472;2022-10-22T00:14:07;92.78;;;5.95;;
4895;SDS011;2463;49.948;8.472;2022-10-22T00:16:34;98.13;;;5.90;;
4895;SDS011;2463;49.948;8.472;2022-10-22T00:19:01;96.65;;;6.95;;
4895;SDS011;2463;49.948;8.472;2022-10-22T00:21:28;99.35;;;5.90;;
4895;SDS011;2463;49.948;8.472;2022-10-22T00:23:55;101.40;;;5.95;;
4895;SDS011;2463;49.948;8.472;2022-10-22T00:26:22;93.13;;;5.55;;
4895;SDS011;2463;49.948;8.472;2022-10-22T00:28:49;98.10;;;6.43;;
4895;SDS011;2463;49.948;8.472;2022-10-22T00:31:15;96.72;;;6.30;;
4895;SDS011;2463;49.948;8.472;2022-10-22T00:33:47;93.53;;;5.75;;
4895;SDS011;2463;49.948;8.472;2022-10-22T00:36:14;96.93;;;6.70;;
4895;SDS011;2463;49.948;8.472;2022-10-22T00:38:41;91.30;;;5.03;;
4895;SDS011;2463;49.948;8.472;2022-10-22T00:41:08;93.55;;;6.63;;
4895;SDS011;2463;49.948;8.472;2022-10-22T00:43:52;92.47;;;6.50;;
4895;SDS011;2463;49.948;8.472;2022-10-22T00:46:26;93.22;;;6.10;;
4895;SDS011;2463;49.948;8.472;2022-10-22T00:48:55;94.07;;;6.40;;
4895;SDS011;2463;49.948;8.472;2022-10-22T00:51:25;93.93;;;5.78;;
4895;SDS011;2463;49.948;8.472;2022-10-22T00:53:56;97.70;;;6.35;;
4895;SDS011;2463;49.948;8.472;2022-10-22T00:56:27;95.80;;;6.30;;
4895;SDS011;2463;49.948;8.472;2022-10-22T00:58:55;96.40;;;6.40;;
4895;SDS011;2463;49.948;8.472;2022-10-22T01:01:28;97.18;;;7.50;;
4895;SDS011;2463;49.948;8.472;2022-10-22T01:03:56;97.40;;;6.10;;
4895;SDS011;2463;49.948;8.472;2022-10-22T01:06:32;94.68;;;6.60;;
4895;SDS011;2463;49.948;8.472;2022-10-22T01:11:34;92.50;;;5.50;;
4895;SDS011;2463;49.948;8.472;2022-10-22T01:22:39;93.97;;;6.07;;
4895;SDS011;2463;49.948;8.472;2022-10-22T01:25:15;93.05;;;5.88;;
4895;SDS011;2463;49.948;8.472;2022-10-22T01:30:48;96.90;;;6.15;;
4895;SDS011;2463;49.948;8.472;2022-10-22T01:33:18;94.38;;;6.60;;
4895;SDS011;2463;49.948;8.472;2022-10-22T01:35:48;97.75;;;6.40;;
4895;SDS011;2463;49.948;8.472;2022-10-22T01:38:16;98.53;;;6.40;;
4895;SDS011;2463;49.948;8.472;2022-10-22T01:40:46;98.53;;;7.35;;
4895;SDS011;2463;49.948;8.472;2022-10-22T01:43:14;93.85;;;5.95;;
4895;SDS011;2463;49.948;8.472;2022-10-22T01:45:42;95.03;;;6.00;;
4895;SDS011;2463;49.948;8.472;2022-10-22T01:56:57;99.70;;;5.68;;
4895;SDS011;2463;49.948;8.472;2022-10-22T01:59:44;94.25;;;5.70;;
4895;SDS011;2463;49.948;8.472;2022-10-22T02:07:31;92.95;;;5.50;;
4895;SDS011;2463;49.948;8.472;2022-10-22T02:10:02;90.85;;;4.90;;
4895;SDS011;2463;49.948;8.472;2022-10-22T02:12:32;94.82;;;5.70;;
4895;SDS011;2463;49.948;8.472;2022-10-22T02:15:00;91.57;;;5.00;;
4895;SDS011;2463;49.948;8.472;2022-10-22T02:17:30;95.60;;;5.82;;
4895;SDS011;2463;49.948;8.472;2022-10-22T02:20:00;100.80;;;5.57;;
4895;SDS011;2463;49.948;8.472;2022-10-22T02:22:33;94.75;;;5.45;;
4895;SDS011;2463;49.948;8.472;2022-10-22T02:25:02;91.78;;;4.90;;
4895;SDS011;2463;49.948;8.472;2022-10-22T02:27:39;92.00;;;5.43;;
4895;SDS011;2463;49.948;8.472;2022-10-22T02:30:15;97.50;;;5.43;;
4895;SDS011;2463;49.948;8.472;2022-10-22T02:32:52;92.75;;;5.15;;
4895;SDS011;2463;49.948;8.472;2022-10-22T02:35:29;90.90;;;4.80;;
4895;SDS011;2463;49.948;8.472;2022-10-22T02:37:57;90.95;;;4.70;;
4895;SDS011;2463;49.948;8.472;2022-10-22T02:40:24;90.97;;;4.90;;
4895;SDS011;2463;49.948;8.472;2022-10-22T02:42:53;93.05;;;4.85;;
4895;SDS011;2463;49.948;8.472;2022-10-22T02:45:19;90.32;;;4.47;;
4895;SDS011;2463;49.948;8.472;2022-10-22T02:47:46;92.90;;;4.85;;
4895;SDS011;2463;49.948;8.472;2022-10-22T02:50:13;91.18;;;4.50;;
4895;SDS011;2463;49.948;8.472;2022-10-22T02:52:40;94.38;;;4.30;;
4895;SDS011;2463;49.948;8.472;2022-10-22T02:55:08;90.03;;;4.40;;
4895;SDS011;2463;49.948;8.472;2022-10-22T02:57:34;91.60;;;4.50;;
4895;SDS011;2463;49.948;8.472;2022-10-22T03:00:02;90.32;;;4.28;;
4895;SDS011;2463;49.948;8.472;2022-10-22T03:02:33;91.40;;;4.82;;
4895;SDS011;2463;49.948;8.472;2022-10-22T03:05:00;91.30;;;4.43;;
4895;SDS011;2463;49.948;8.472;2022-10-22T03:07:27;91.53;;;4.43;;
4895;SDS011;2463;49.948;8.472;2022-10-22T03:09:53;90.75;;;4.50;;
4895;SDS011;2463;49.948;8.472;2022-10-22T03:12:20;90.32;;;4.30;;
4895;SDS011;2463;49.948;8.472;2022-10-22T03:14:47;91.57;;;4.10;;
4895;SDS011;2463;49.948;8.472;2022-10-22T03:17:13;93.00;;;4.28;;
4895;SDS011;2463;49.948;8.472;2022-10-22T03:19:40;90.28;;;4.10;;
4895;SDS011;2463;49.948;8.472;2022-10-22T03:22:14;93.28;;;4.30;;
4895;SDS011;2463;49.948;8.472;2022-10-22T03:24:45;90.60;;;4.30;;
4895;SDS011;2463;49.948;8.472;2022-10-22T03:27:14;92.20;;;4.25;;
4895;SDS011;2463;49.948;8.472;2022-10-22T03:29:43;91.68;;;4.30;;
4895;SDS011;2463;49.948;8.472;2022-10-22T03:32:12;93.75;;;4.40;;
4895;SDS011;2463;49.948;8.472;2022-10-22T03:34:38;91.90;;;4.88;;
4895;SDS011;2463;49.948;8.472;2022-10-22T03:37:05;92.80;;;4.30;;
4895;SDS011;2463;49.948;8.472;2022-10-22T03:39:32;90.63;;;4.50;;
4895;SDS011;2463;49.948;8.472;2022-10-22T03:42:00;92.22;;;4.55;;
4895;SDS011;2463;49.948;8.472;2022-10-22T03:44:28;91.82;;;4.47;;
4895;SDS011;2463;49.948;8.472;2022-10-22T03:46:55;90.18;;;4.57;;
4895;SDS011;2463;49.948;8.472;2022-10-22T03:49:27;92.07;;;4.45;;
4895;SDS011;2463;49.948;8.472;2022-10-22T03:51:54;94.15;;;4.60;;
4895;SDS011;2463;49.948;8.472;2022-10-22T03:54:20;91.78;;;4.68;;
4895;SDS011;2463;49.948;8.472;2022-10-22T03:56:47;90.75;;;4.35;;
4895;SDS011;2463;49.948;8.472;2022-10-22T03:59:14;91.10;;;4.68;;
4895;SDS011;2463;49.948;8.472;2022-10-22T04:01:41;90.90;;;4.53;;
4895;SDS011;2463;49.948;8.472;2022-10-22T04:04:07;90.93;;;4.40;;
4895;SDS011;2463;49.948;8.472;2022-10-22T04:06:34;92.60;;;4.40;;
4895;SDS011;2463;49.948;8.472;2022-10-22T04:09:01;91.32;;;4.72;;
4895;SDS011;2463;49.948;8.472;2022-10-22T04:11:28;91.05;;;4.50;;
4895;SDS011;2463;49.948;8.472;2022-10-22T04:13:54;90.75;;;4.60;;
4895;SDS011;2463;49.948;8.472;2022-10-22T04:16:21;93.95;;;4.70;;
4895;SDS011;2463;49.948;8.472;2022-10-22T04:18:53;90.78;;;4.65;;
4895;SDS011;2463;49.948;8.472;2022-10-22T04:21:20;93.20;;;4.50;;
4895;SDS011;2463;49.948;8.472;2022-10-22T04:23:48;96.22;;;4.50;;
4895;SDS011;2463;49.948;8.472;2022-10-22T04:26:17;92.03;;;4.82;;
4895;SDS011;2463;49.948;8.472;2022-10-22T04:28:45;90.63;;;4.53;;
4895;SDS011;2463;49.948;8.472;2022-10-22T04:31:13;94.95;;;4.65;;
4895;SDS011;2463;49.948;8.472;2022-10-22T04:33:42;90.82;;;4.30;;
4895;SDS011;2463;49.948;8.472;2022-10-22T04:36:09;91.20;;;4.90;;
4895;SDS011;2463;49.948;8.472;2022-10-22T04:38:41;92.70;;;4.47;;
4895;SDS011;2463;49.948;8.472;2022-10-22T04:41:11;93.32;;;4.97;;
4895;SDS011;2463;49.948;8.472;2022-10-22T04:43:40;90.30;;;4.85;;
4895;SDS011;2463;49.948;8.472;2022-10-22T04:46:07;91.93;;;4.28;;
4895;SDS011;2463;49.948;8.472;2022-10-22T04:48:34;90.45;;;4.40;;
4895;SDS011;2463;49.948;8.472;2022-10-22T04:51:02;99.68;;;4.68;;
4895;SDS011;2463;49.948;8.472;2022-10-22T04:53:30;90.38;;;4.35;;
4895;SDS011;2463;49.948;8.472;2022-10-22T04:56:09;91.63;;;4.93;;
4895;SDS011;2463;49.948;8.472;2022-10-22T04:58:48;91.88;;;4.65;;
4895;SDS011;2463;49.948;8.472;2022-10-22T05:01:20;91.18;;;4.00;;
4895;SDS011;2463;49.948;8.472;2022-10-22T05:03:52;91.05;;;4.38;;
4895;SDS011;2463;49.948;8.472;2022-10-22T05:06:21;91.20;;;4.60;;
4895;SDS011;2463;49.948;8.472;2022-10-22T05:08:55;90.43;;;4.70;;
4895;SDS011;2463;49.948;8.472;2022-10-22T05:11:27;90.63;;;4.40;;
4895;SDS011;2463;49.948;8.472;2022-10-22T05:13:55;90.85;;;4.60;;
4895;SDS011;2463;49.948;8.472;2022-10-22T05:16:22;90.90;;;4.60;;
4895;SDS011;2463;49.948;8.472;2022-10-22T05:18:50;92.68;;;4.63;;
4895;SDS011;2463;49.948;8.472;2022-10-22T05:21:17;90.88;;;4.47;;
4895;SDS011;2463;49.948;8.472;2022-10-22T05:23:46;94.50;;;4.85;;
4895;SDS011;2463;49.948;8.472;2022-10-22T05:26:15;113.88;;;5.28;;
4895;SDS011;2463;49.948;8.472;2022-10-22T05:28:46;91.30;;;4.60;;
4895;SDS011;2463;49.948;8.472;2022-10-22T05:31:14;91.57;;;5.15;;
4895;SDS011;2463;49.948;8.472;2022-10-22T05:33:42;95.45;;;4.53;;
4895;SDS011;2463;49.948;8.472;2022-10-22T05:36:16;94.35;;;5.03;;
4895;SDS011;2463;49.948;8.472;2022-10-22T05:38:44;91.00;;;4.88;;
4895;SDS011;2463;49.948;8.472;2022-10-22T05:41:19;91.78;;;4.85;;
4895;SDS011;2463;49.948;8.472;2022-10-22T05:43:47;99.35;;;5.40;;
4895;SDS011;2463;49.948;8.472;2022-10-22T05:46:18;92.38;;;5.25;;
4895;SDS011;2463;49.948;8.472;2022-10-22T05:48:51;90.22;;;4.22;;
4895;SDS011;2463;49.948;8.472;2022-10-22T05:51:23;91.75;;;5.35;;
4895;SDS011;2463;49.948;8.472;2022-10-22T05:53:54;91.32;;;4.82;;
4895;SDS011;2463;49.948;8.472;2022-10-22T05:56:22;91.05;;;4.93;;
4895;SDS011;2463;49.948;8.472;2022-10-22T05:58:49;95.05;;;5.30;;
4895;SDS011;2463;49.948;8.472;2022-10-22T06:03:44;92.50;;;5.28;;
4895;SDS011;2463;49.948;8.472;2022-10-22T06:08:47;95.05;;;4.43;;
4895;SDS011;2463;49.948;8.472;2022-10-22T06:11:16;92.50;;;4.70;;
4895;SDS011;2463;49.948;8.472;2022-10-22T06:13:44;90.47;;;4.63;;
4895;SDS011;2463;49.948;8.472;2022-10-22T06:16:11;96.90;;;4.65;;
4895;SDS011;2463;49.948;8.472;2022-10-22T06:18:38;93.25;;;5.25;;
4895;SDS011;2463;49.948;8.472;2022-10-22T06:21:06;91.70;;;5.18;;
4895;SDS011;2463;49.948;8.472;2022-10-22T06:23:35;90.35;;;4.80;;
4895;SDS011;2463;49.948;8.472;2022-10-22T06:26:03;91.20;;;4.68;;
4895;SDS011;2463;49.948;8.472;2022-10-22T06:28:30;91.25;;;4.60;;
4895;SDS011;2463;49.948;8.472;2022-10-22T06:30:57;93.38;;;4.72;;
4895;SDS011;2463;49.948;8.472;2022-10-22T06:33:25;90.25;;;4.45;;
4895;SDS011;2463;49.948;8.472;2022-10-22T06:35:54;93.50;;;5.00;;
4895;SDS011;2463;49.948;8.472;2022-10-22T06:38:20;91.38;;;4.50;;
4895;SDS011;2463;49.948;8.472;2022-10-22T06:40:47;91.47;;;4.63;;
4895;SDS011;2463;49.948;8.472;2022-10-22T06:43:14;93.00;;;4.50;;
4895;SDS011;2463;49.948;8.472;2022-10-22T06:45:40;91.43;;;4.55;;
4895;SDS011;2463;49.948;8.472;2022-10-22T06:48:07;92.80;;;4.80;;
4895;SDS011;2463;49.948;8.472;2022-10-22T06:50:34;91.32;;;4.75;;
4895;SDS011;2463;49.948;8.472;2022-10-22T06:53:00;94.05;;;4.90;;
4895;SDS011;2463;49.948;8.472;2022-10-22T06:55:27;90.65;;;4.40;;
4895;SDS011;2463;49.948;8.472;2022-10-22T06:57:54;90.63;;;4.38;;
4895;SDS011;2463;49.948;8.472;2022-10-22T07:00:21;91.03;;;4.60;;
4895;SDS011;2463;49.948;8.472;2022-10-22T07:02:51;90.32;;;4.32;;
4895;SDS011;2463;49.948;8.472;2022-10-22T07:05:24;90.72;;;4.45;;
4895;SDS011;2463;49.948;8.472;2022-10-22T07:07:50;90.90;;;4.40;;
4895;SDS011;2463;49.948;8.472;2022-10-22T07:10:17;90.22;;;4.25;;
4895;SDS011;2463;49.948;8.472;2022-10-22T07:12:44;96.00;;;4.55;;
4895;SDS011;2463;49.948;8.472;2022-10-22T07:15:10;90.50;;;4.60;;
4895;SDS011;2463;49.948;8.472;2022-10-22T07:17:37;91.25;;;4.45;;
4895;SDS011;2463;49.948;8.472;2022-10-22T07:20:05;90.63;;;4.45;;
4895;SDS011;2463;49.948;8.472;2022-10-22T07:22:32;90.43;;;4.47;;
4895;SDS011;2463;49.948;8.472;2022-10-22T07:24:59;92.18;;;4.70;;
4895;SDS011;2463;49.948;8.472;2022-10-22T07:27:32;93.55;;;4.40;;
4895;SDS011;2463;49.948;8.472;2022-10-22T07:29:59;95.35;;;4.40;;
4895;SDS011;2463;49.948;8.472;2022-10-22T07:32:26;92.30;;;4.60;;
4895;SDS011;2463;49.948;8.472;2022-10-22T07:34:53;92.07;;;4.40;;
4895;SDS011;2463;49.948;8.472;2022-10-22T07:37:19;91.72;;;4.70;;
4895;SDS011;2463;49.948;8.472;2022-10-22T07:39:47;90.72;;;4.22;;
4895;SDS011;2463;49.948;8.472;2022-10-22T07:42:14;91.38;;;4.45;;
4895;SDS011;2463;49.948;8.472;2022-10-22T07:44:41;92.32;;;4.90;;
4895;SDS011;2463;49.948;8.472;2022-10-22T07:47:07;96.18;;;5.18;;
4895;SDS011;2463;49.948;8.472;2022-10-22T07:49:34;92.40;;;4.50;;
4895;SDS011;2463;49.948;8.472;2022-10-22T07:52:01;90.13;;;4.40;;
4895;SDS011;2463;49.948;8.472;2022-10-22T07:54:27;91.70;;;4.57;;
4895;SDS011;2463;49.948;8.472;2022-10-22T07:56:54;91.50;;;4.20;;
4895;SDS011;2463;49.948;8.472;2022-10-22T07:59:21;92.93;;;4.22;;
4895;SDS011;2463;49.948;8.472;2022-10-22T08:01:47;90.35;;;4.13;;
4895;SDS011;2463;49.948;8.472;2022-10-22T08:04:14;91.60;;;4.13;;
4895;SDS011;2463;49.948;8.472;2022-10-22T08:06:41;89.53;;;3.85;;
4895;SDS011;2463;49.948;8.472;2022-10-22T08:09:12;90.60;;;4.15;;
4895;SDS011;2463;49.948;8.472;2022-10-22T08:11:39;89.82;;;4.03;;
4895;SDS011;2463;49.948;8.472;2022-10-22T08:14:05;91.32;;;4.30;;
4895;SDS011;2463;49.948;8.472;2022-10-22T08:16:32;88.97;;;3.75;;
4895;SDS011;2463;49.948;8.472;2022-10-22T08:18:59;92.43;;;4.10;;
4895;SDS011;2463;49.948;8.472;2022-10-22T08:21:25;90.35;;;4.05;;
4895;SDS011;2463;49.948;8.472;2022-10-22T08:23:52;91.45;;;3.92;;
4895;SDS011;2463;49.948;8.472;2022-10-22T08:26:19;88.72;;;3.88;;
4895;SDS011;2463;49.948;8.472;2022-10-22T08:28:46;90.07;;;3.72;;
4895;SDS011;2463;49.948;8.472;2022-10-22T08:31:13;89.47;;;3.78;;
4895;SDS011;2463;49.948;8.472;2022-10-22T08:33:39;87.45;;;3.40;;
4895;SDS011;2463;49.948;8.472;2022-10-22T08:36:07;86.35;;;3.30;;
4895;SDS011;2463;49.948;8.472;2022-10-22T08:38:34;86.32;;;3.40;;
4895;SDS011;2463;49.948;8.472;2022-10-22T08:41:11;87.05;;;3.40;;
4895;SDS011;2463;49.948;8.472;2022-10-22T08:49:28;84.72;;;3.00;;
4895;SDS011;2463;49.948;8.472;2022-10-22T08:52:02;84.32;;;3.00;;
4895;SDS011;2463;49.948;8.472;2022-10-22T08:54:35;84.05;;;2.83;;
4895;SDS011;2463;49.948;8.472;2022-10-22T08:57:26;83.45;;;2.83;;
4895;SDS011;2463;49.948;8.472;2022-10-22T09:07:50;82.03;;;2.50;;
4895;SDS011;2463;49.948;8.472;2022-10-22T09:10:18;82.50;;;2.63;;
4895;SDS011;2463;49.948;8.472;2022-10-22T09:12:49;82.27;;;2.60;;
4895;SDS011;2463;49.948;8.472;2022-10-22T09:15:16;85.50;;;2.57;;
4895;SDS011;2463;49.948;8.472;2022-10-22T09:17:49;80.37;;;2.50;;
4895;SDS011;2463;49.948;8.472;2022-10-22T09:23:28;80.80;;;2.13;;
4895;SDS011;2463;49.948;8.472;2022-10-22T09:26:24;79.27;;;2.00;;
4895;SDS011;2463;49.948;8.472;2022-10-22T09:28:51;79.47;;;2.20;;
4895;SDS011;2463;49.948;8.472;2022-10-22T09:31:18;79.20;;;2.13;;
4895;SDS011;2463;49.948;8.472;2022-10-22T09:33:45;80.67;;;2.13;;
4895;SDS011;2463;49.948;8.472;2022-10-22T09:36:16;78.20;;;2.07;;
4895;SDS011;2463;49.948;8.472;2022-10-22T09:38:50;78.80;;;2.10;;
4895;SDS011;2463;49.948;8.472;2022-10-22T09:41:18;79.20;;;2.17;;
4895;SDS011;2463;49.948;8.472;2022-10-22T09:43:48;82.30;;;2.30;;
4895;SDS011;2463;49.948;8.472;2022-10-22T09:46:20;79.30;;;2.20;;
4895;SDS011;2463;49.948;8.472;2022-10-22T09:51:48;81.83;;;2.93;;
4895;SDS011;2463;49.948;8.472;2022-10-22T09:54:19;80.37;;;2.13;;
4895;SDS011;2463;49.948;8.472;2022-10-22T09:56:51;83.77;;;2.30;;
4895;SDS011;2463;49.948;8.472;2022-10-22T09:59:26;80.37;;;3.30;;
4895;SDS011;2463;49.948;8.472;2022-10-22T10:01:59;79.80;;;2.20;;
4895;SDS011;2463;49.948;8.472;2022-10-22T10:04:55;79.47;;;2.30;;
4895;SDS011;2463;49.948;8.472;2022-10-22T10:07:26;80.33;;;2.10;;
4895;SDS011;2463;49.948;8.472;2022-10-22T10:09:56;83.03;;;2.20;;
4895;SDS011;2463;49.948;8.472;2022-10-22T10:15:10;87.43;;;2.60;;
4895;SDS011;2463;49.948;8.472;2022-10-22T10:28:45;81.37;;;2.70;;
4895;SDS011;2463;49.948;8.472;2022-10-22T10:31:33;80.53;;;2.23;;
4895;SDS011;2463;49.948;8.472;2022-10-22T10:37:17;83.10;;;2.50;;
4895;SDS011;2463;49.948;8.472;2022-10-22T10:43:37;78.47;;;2.00;;
4895;SDS011;2463;49.948;8.472;2022-10-22T10:46:08;78.67;;;2.00;;
4895;SDS011;2463;49.948;8.472;2022-10-22T10:51:28;82.47;;;2.57;;
4895;SDS011;2463;49.948;8.472;2022-10-22T10:54:04;84.00;;;2.90;;
4895;SDS011;2463;49.948;8.472;2022-10-22T10:56:53;83.97;;;3.03;;
4895;SDS011;2463;49.948;8.472;2022-10-22T11:05:31;82.55;;;3.08;;
4895;SDS011;2463;49.948;8.472;2022-10-22T11:08:12;83.97;;;3.07;;
4895;SDS011;2463;49.948;8.472;2022-10-22T11:10:46;82.90;;;3.03;;
4895;SDS011;2463;49.948;8.472;2022-10-22T11:13:26;83.15;;;3.10;;
4895;SDS011;2463;49.948;8.472;2022-10-22T11:16:17;88.40;;;3.40;;
4895;SDS011;2463;49.948;8.472;2022-10-22T11:19:02;84.25;;;3.28;;
4895;SDS011;2463;49.948;8.472;2022-10-22T11:24:43;94.10;;;3.78;;
4895;SDS011;2463;49.948;8.472;2022-10-22T11:27:21;87.22;;;3.22;;
4895;SDS011;2463;49.948;8.472;2022-10-22T11:30:12;86.32;;;3.83;;
4895;SDS011;2463;49.948;8.472;2022-10-22T11:32:40;84.93;;;3.10;;
4895;SDS011;2463;49.948;8.472;2022-10-22T11:35:13;84.28;;;3.15;;
4895;SDS011;2463;49.948;8.472;2022-10-22T11:37:48;86.35;;;3.70;;
4895;SDS011;2463;49.948;8.472;2022-10-22T11:40:20;87.32;;;3.95;;
4895;SDS011;2463;49.948;8.472;2022-10-22T11:42:57;87.72;;;3.47;;
4895;SDS011;2463;49.948;8.472;2022-10-22T11:45:34;87.78;;;3.58;;
4895;SDS011;2463;49.948;8.472;2022-10-22T11:50:43;85.68;;;3.38;;
4895;SDS011;2463;49.948;8.472;2022-10-22T11:53:35;88.57;;;3.42;;
4895;SDS011;2463;49.948;8.472;2022-10-22T11:58:41;90.63;;;3.50;;
4895;SDS011;2463;49.948;8.472;2022-10-22T12:03:40;88.00;;;3.47;;
4895;SDS011;2463;49.948;8.472;2022-10-22T12:16:44;83.27;;;3.07;;
4895;SDS011;2463;49.948;8.472;2022-10-22T12:21:52;90.45;;;3.05;;
4895;SDS011;2463;49.948;8.472;2022-10-22T12:24:23;82.40;;;2.80;;
4895;SDS011;2463;49.948;8.472;2022-10-22T12:26:51;85.45;;;3.25;;
4895;SDS011;2463;49.948;8.472;2022-10-22T12:29:19;84.35;;;3.03;;
4895;SDS011;2463;49.948;8.472;2022-10-22T12:31:51;84.97;;;3.10;;
4895;SDS011;2463;49.948;8.472;2022-10-22T12:34:22;83.93;;;3.20;;
4895;SDS011;2463;49.948;8.472;2022-10-22T12:36:51;84.85;;;3.30;;
4895;SDS011;2463;49.948;8.472;2022-10-22T12:39:19;82.82;;;2.97;;
4895;SDS011;2463;49.948;8.472;2022-10-22T12:41:49;83.57;;;2.85;;
4895;SDS011;2463;49.948;8.472;2022-10-22T12:44:18;84.27;;;2.60;;
4895;SDS011;2463;49.948;8.472;2022-10-22T12:46:45;82.77;;;2.83;;
4895;SDS011;2463;49.948;8.472;2022-10-22T12:49:20;87.37;;;3.03;;
4895;SDS011;2463;49.948;8.472;2022-10-22T12:51:50;83.68;;;2.50;;
4895;SDS011;2463;49.948;8.472;2022-10-22T12:54:37;83.72;;;2.80;;
4895;SDS011;2463;49.948;8.472;2022-10-22T12:57:04;83.50;;;3.13;;
4895;SDS011;2463;49.948;8.472;2022-10-22T12:59:37;86.07;;;3.72;;
4895;SDS011;2463;49.948;8.472;2022-10-22T13:02:11;85.03;;;3.40;;
4895;SDS011;2463;49.948;8.472;2022-10-22T13:05:12;84.80;;;3.40;;
4895;SDS011;2463;49.948;8.472;2022-10-22T13:07:46;86.03;;;3.40;;
4895;SDS011;2463;49.948;8.472;2022-10-22T13:12:47;85.78;;;3.30;;
4895;SDS011;2463;49.948;8.472;2022-10-22T13:15:37;87.15;;;3.33;;
4895;SDS011;2463;49.948;8.472;2022-10-22T13:20:52;84.88;;;3.10;;
4895;SDS011;2463;49.948;8.472;2022-10-22T13:23:30;90.63;;;3.97;;
4895;SDS011;2463;49.948;8.472;2022-10-22T13:26:02;87.40;;;3.50;;
4895;SDS011;2463;49.948;8.472;2022-10-22T13:28:29;86.95;;;3.40;;
4895;SDS011;2463;49.948;8.472;2022-10-22T13:30:58;86.68;;;3.83;;
4895;SDS011;2463;49.948;8.472;2022-10-22T13:33:33;85.13;;;3.33;;
4895;SDS011;2463;49.948;8.472;2022-10-22T13:36:02;85.53;;;3.30;;
4895;SDS011;2463;49.948;8.472;2022-10-22T13:38:30;88.20;;;3.60;;
4895;SDS011;2463;49.948;8.472;2022-10-22T13:40:57;89.10;;;3.90;;
4895;SDS011;2463;49.948;8.472;2022-10-22T13:43:24;94.35;;;4.00;;
4895;SDS011;2463;49.948;8.472;2022-10-22T13:45:52;82.85;;;3.10;;
4895;SDS011;2463;49.948;8.472;2022-10-22T13:48:20;85.63;;;3.20;;
4895;SDS011;2463;49.948;8.472;2022-10-22T13:50:49;83.97;;;3.20;;
4895;SDS011;2463;49.948;8.472;2022-10-22T13:53:18;85.03;;;3.50;;
4895;SDS011;2463;49.948;8.472;2022-10-22T13:55:48;86.72;;;3.60;;
4895;SDS011;2463;49.948;8.472;2022-10-22T13:58:16;85.15;;;3.10;;
4895;SDS011;2463;49.948;8.472;2022-10-22T14:00:47;88.43;;;3.50;;
4895;SDS011;2463;49.948;8.472;2022-10-22T14:03:18;89.38;;;3.40;;
4895;SDS011;2463;49.948;8.472;2022-10-22T14:05:47;87.93;;;3.38;;
4895;SDS011;2463;49.948;8.472;2022-10-22T14:08:15;86.13;;;3.30;;
4895;SDS011;2463;49.948;8.472;2022-10-22T14:10:45;89.57;;;3.40;;
4895;SDS011;2463;49.948;8.472;2022-10-22T14:13:12;92.15;;;4.10;;
4895;SDS011;2463;49.948;8.472;2022-10-22T14:15:41;89.80;;;3.70;;
4895;SDS011;2463;49.948;8.472;2022-10-22T14:18:10;83.20;;;3.15;;
4895;SDS011;2463;49.948;8.472;2022-10-22T14:20:40;88.38;;;3.95;;
4895;SDS011;2463;49.948;8.472;2022-10-22T14:23:12;88.85;;;4.18;;
4895;SDS011;2463;49.948;8.472;2022-10-22T14:25:46;87.07;;;3.40;;
4895;SDS011;2463;49.948;8.472;2022-10-22T14:28:16;86.40;;;3.55;;
4895;SDS011;2463;49.948;8.472;2022-10-22T14:30:43;93.38;;;4.30;;
4895;SDS011;2463;49.948;8.472;2022-10-22T14:33:14;90.07;;;3.80;;
4895;SDS011;2463;49.948;8.472;2022-10-22T14:35:56;90.05;;;4.10;;
4895;SDS011;2463;49.948;8.472;2022-10-22T14:38:24;87.40;;;3.90;;
4895;SDS011;2463;49.948;8.472;2022-10-22T14:40:50;91.10;;;3.70;;
4895;SDS011;2463;49.948;8.472;2022-10-22T14:43:20;92.07;;;3.80;;
4895;SDS011;2463;49.948;8.472;2022-10-22T14:45:48;86.28;;;3.63;;
4895;SDS011;2463;49.948;8.472;2022-10-22T14:48:16;89.78;;;3.90;;
4895;SDS011;2463;49.948;8.472;2022-10-22T14:50:43;86.95;;;3.50;;
4895;SDS011;2463;49.948;8.472;2022-10-22T14:53:11;92.00;;;4.10;;
4895;SDS011;2463;49.948;8.472;2022-10-22T14:55:39;89.05;;;3.97;;
4895;SDS011;2463;49.948;8.472;2022-10-22T14:58:06;87.05;;;3.55;;
4895;SDS011;2463;49.948;8.472;2022-10-22T15:00:33;87.68;;;3.45;;
4895;SDS011;2463;49.948;8.472;2022-10-22T15:03:02;88.35;;;3.40;;
4895;SDS011;2463;49.948;8.472;2022-10-22T15:05:29;86.25;;;3.28;;
4895;SDS011;2463;49.948;8.472;2022-10-22T15:07:56;87.32;;;4.05;;
4895;SDS011;2463;49.948;8.472;2022-10-22T15:10:24;86.72;;;3.60;;
4895;SDS011;2463;49.948;8.472;2022-10-22T15:12:51;86.78;;;3.33;;
4895;SDS011;2463;49.948;8.472;2022-10-22T15:15:18;85.45;;;3.47;;
4895;SDS011;2463;49.948;8.472;2022-10-22T15:17:48;87.10;;;3.50;;
4895;SDS011;2463;49.948;8.472;2022-10-22T15:20:15;87.90;;;3.70;;
4895;SDS011;2463;49.948;8.472;2022-10-22T15:22:42;86.57;;;3.88;;
4895;SDS011;2463;49.948;8.472;2022-10-22T15:25:10;90.10;;;4.95;;
4895;SDS011;2463;49.948;8.472;2022-10-22T15:27:38;86.13;;;3.60;;
4895;SDS011;2463;49.948;8.472;2022-10-22T15:30:05;86.43;;;4.00;;
4895;SDS011;2463;49.948;8.472;2022-10-22T15:32:33;93.53;;;3.70;;
4895;SDS011;2463;49.948;8.472;2022-10-22T15:34:59;89.22;;;3.50;;
4895;SDS011;2463;49.948;8.472;2022-10-22T15:37:26;89.40;;;3.75;;
4895;SDS011;2463;49.948;8.472;2022-10-22T15:39:53;89.93;;;4.20;;
4895;SDS011;2463;49.948;8.472;2022-10-22T15:42:20;87.57;;;3.92;;
4895;SDS011;2463;49.948;8.472;2022-10-22T15:44:48;88.43;;;3.75;;
4895;SDS011;2463;49.948;8.472;2022-10-22T15:47:21;89.00;;;3.90;;
4895;SDS011;2463;49.948;8.472;2022-10-22T15:49:50;87.40;;;3.75;;
4895;SDS011;2463;49.948;8.472;2022-10-22T15:52:17;89.53;;;4.10;;
4895;SDS011;2463;49.948;8.472;2022-10-22T15:54:43;89.38;;;4.13;;
4895;SDS011;2463;49.948;8.472;2022-10-22T15:57:10;89.50;;;3.95;;
4895;SDS011;2463;49.948;8.472;2022-10-22T15:59:37;88.75;;;4.15;;
4895;SDS011;2463;49.948;8.472;2022-10-22T16:02:04;91.65;;;4.15;;
4895;SDS011;2463;49.948;8.472;2022-10-22T16:04:32;88.47;;;4.20;;
4895;SDS011;2463;49.948;8.472;2022-10-22T16:06:59;88.65;;;4.45;;
4895;SDS011;2463;49.948;8.472;2022-10-22T16:09:26;95.15;;;4.05;;
4895;SDS011;2463;49.948;8.472;2022-10-22T16:11:53;91.53;;;4.10;;
4895;SDS011;2463;49.948;8.472;2022-10-22T16:14:21;89.50;;;4.40;;
4895;SDS011;2463;49.948;8.472;2022-10-22T16:16:50;92.95;;;4.35;;
4895;SDS011;2463;49.948;8.472;2022-10-22T16:19:19;101.40;;;8.88;;
4895;SDS011;2463;49.948;8.472;2022-10-22T16:21:47;105.25;;;13.60;;
4895;SDS011;2463;49.948;8.472;2022-10-22T16:24:16;95.05;;;7.28;;
4895;SDS011;2463;49.948;8.472;2022-10-22T16:26:43;91.40;;;4.93;;
4895;SDS011;2463;49.948;8.472;2022-10-22T16:29:10;89.95;;;4.75;;
4895;SDS011;2463;49.948;8.472;2022-10-22T16:31:38;91.38;;;4.50;;
4895;SDS011;2463;49.948;8.472;2022-10-22T16:34:06;93.07;;;4.88;;
4895;SDS011;2463;49.948;8.472;2022-10-22T16:36:32;94.40;;;4.57;;
4895;SDS011;2463;49.948;8.472;2022-10-22T16:39:01;98.85;;;4.55;;
4895;SDS011;2463;49.948;8.472;2022-10-22T16:41:29;91.47;;;4.80;;
4895;SDS011;2463;49.948;8.472;2022-10-22T16:44:02;100.60;;;5.13;;
4895;SDS011;2463;49.948;8.472;2022-10-22T16:46:31;94.95;;;4.57;;
4895;SDS011;2463;49.948;8.472;2022-10-22T16:48:58;107.88;;;5.00;;
4895;SDS011;2463;49.948;8.472;2022-10-22T16:51:26;92.65;;;4.88;;
4895;SDS011;2463;49.948;8.472;2022-10-22T16:53:53;90.38;;;4.93;;
4895;SDS011;2463;49.948;8.472;2022-10-22T16:56:21;91.53;;;4.50;;
4895;SDS011;2463;49.948;8.472;2022-10-22T16:58:50;94.32;;;5.07;;
4895;SDS011;2463;49.948;8.472;2022-10-22T17:01:22;90.35;;;4.28;;
4895;SDS011;2463;49.948;8.472;2022-10-22T17:03:55;93.28;;;4.70;;
4895;SDS011;2463;49.948;8.472;2022-10-22T17:06:24;91.97;;;4.40;;
4895;SDS011;2463;49.948;8.472;2022-10-22T17:08:51;99.40;;;5.15;;